sensor_id;sensor_type;location;lat;lon;timestamp;pressure;altitude;pressure_sealevel;temperature;humidity
24752;BME280;27246;52.376;4.628;2024-01-06T00:00:40;100334.59;;;7.88;90.42
24752;BME280;27246;52.376;4.628;2024-01-06T00:05:42;100339.91;;;7.73;90.90
24752;BME280;27246;52.376;4.628;2024-01-06T00:10:44;100354.97;;;7.77;90.98
24752;BME280;27246;52.376;4.628;2024-01-06T00:15:46;100350.69;;;7.67;91.07
24752;BME280;27246;52.376;4.628;2024-01-06T00:20:48;100358.56;;;7.78;90.09
24752;BME280;27246;52.376;4.628;2024-01-06T00:25:50;100364.03;;;7.94;90.02
24752;BME280;27246;52.376;4.628;2024-01-06T00:30:51;100365.22;;;8.08;89.36
24752;BME280;27246;52.376;4.628;2024-01-06T00:35:54;100365.50;;;8.21;88.10
24752;BME280;27246;52.376;4.628;2024-01-06T00:40:57;100367.41;;;8.21;88.42
24752;BME280;27246;52.376;4.628;2024-01-06T00:45:59;100372.31;;;8.42;88.53
24752;BME280;27246;52.376;4.628;2024-01-06T00:51:00;100383.84;;;8.13;86.73
24752;BME280;27246;52.376;4.628;2024-01-06T00:56:02;100382.16;;;7.79;87.40
24752;BME280;27246;52.376;4.628;2024-01-06T01:01:04;100388.50;;;7.71;85.57
24752;BME280;27246;52.376;4.628;2024-01-06T01:06:06;100400.47;;;7.78;85.23
24752;BME280;27246;52.376;4.628;2024-01-06T01:11:08;100409.88;;;8.17;84.64
24752;BME280;27246;52.376;4.628;2024-01-06T01:16:10;100415.38;;;7.68;84.96
24752;BME280;27246;52.376;4.628;2024-01-06T01:21:12;100421.41;;;8.68;87.21
24752;BME280;27246;52.376;4.628;2024-01-06T01:26:13;100440.34;;;7.65;83.79
24752;BME280;27246;52.376;4.628;2024-01-06T01:31:15;100445.28;;;7.69;84.34
24752;BME280;27246;52.376;4.628;2024-01-06T01:36:17;100451.13;;;7.91;83.96
24752;BME280;27246;52.376;4.628;2024-01-06T01:41:20;100455.41;;;8.34;85.02
24752;BME280;27246;52.376;4.628;2024-01-06T01:46:21;100456.94;;;8.53;87.33
24752;BME280;27246;52.376;4.628;2024-01-06T01:51:28;100467.41;;;8.41;85.61
24752;BME280;27246;52.376;4.628;2024-01-06T01:56:31;100479.38;;;8.08;85.49
24752;BME280;27246;52.376;4.628;2024-01-06T02:01:36;100480.88;;;7.69;85.47
24752;BME280;27246;52.376;4.628;2024-01-06T02:06:38;100488.56;;;7.57;85.98
24752;BME280;27246;52.376;4.628;2024-01-06T02:11:40;100491.31;;;7.66;86.76
24752;BME280;27246;52.376;4.628;2024-01-06T02:16:41;100492.47;;;7.55;86.25
24752;BME280;27246;52.376;4.628;2024-01-06T02:21:47;100503.56;;;7.45;86.16
24752;BME280;27246;52.376;4.628;2024-01-06T02:26:49;100515.97;;;7.74;85.02
24752;BME280;27246;52.376;4.628;2024-01-06T02:31:52;100520.44;;;7.99;85.01
24752;BME280;27246;52.376;4.628;2024-01-06T02:36:54;100534.09;;;7.75;83.03
24752;BME280;27246;52.376;4.628;2024-01-06T02:41:55;100544.69;;;7.61;83.61
24752;BME280;27246;52.376;4.628;2024-01-06T02:46:57;100553.28;;;7.91;82.65
24752;BME280;27246;52.376;4.628;2024-01-06T02:51:59;100554.31;;;7.74;82.22
24752;BME280;27246;52.376;4.628;2024-01-06T02:57:01;100562.56;;;7.98;82.92
24752;BME280;27246;52.376;4.628;2024-01-06T03:02:02;100559.94;;;7.72;82.14
24752;BME280;27246;52.376;4.628;2024-01-06T03:07:04;100565.56;;;7.71;83.06
24752;BME280;27246;52.376;4.628;2024-01-06T03:12:07;100578.22;;;7.64;82.82
24752;BME280;27246;52.376;4.628;2024-01-06T03:17:09;100578.44;;;7.36;83.07
24752;BME280;27246;52.376;4.628;2024-01-06T03:22:14;100591.16;;;7.53;84.62
24752;BME280;27246;52.376;4.628;2024-01-06T03:27:16;100592.13;;;7.78;84.36
24752;BME280;27246;52.376;4.628;2024-01-06T03:32:18;100597.63;;;7.44;84.23
24752;BME280;27246;52.376;4.628;2024-01-06T03:37:19;100598.41;;;7.28;83.83
24752;BME280;27246;52.376;4.628;2024-01-06T03:42:23;100608.81;;;7.67;84.42
24752;BME280;27246;52.376;4.628;2024-01-06T03:47:25;100614.53;;;7.39;84.23
24752;BME280;27246;52.376;4.628;2024-01-06T03:52:27;100612.47;;;7.33;84.86
24752;BME280;27246;52.376;4.628;2024-01-06T03:57:29;100619.97;;;7.66;84.86
24752;BME280;27246;52.376;4.628;2024-01-06T04:02:31;100621.25;;;7.53;84.53
24752;BME280;27246;52.376;4.628;2024-01-06T04:07:33;100635.59;;;7.47;85.89
24752;BME280;27246;52.376;4.628;2024-01-06T04:12:34;100635.91;;;7.36;85.35
24752;BME280;27246;52.376;4.628;2024-01-06T04:17:36;100642.78;;;7.48;84.09
24752;BME280;27246;52.376;4.628;2024-01-06T04:22:38;100646.78;;;7.28;84.92
24752;BME280;27246;52.376;4.628;2024-01-06T04:27:40;100647.50;;;7.30;85.55
24752;BME280;27246;52.376;4.628;2024-01-06T04:32:43;100655.34;;;7.33;85.60
24752;BME280;27246;52.376;4.628;2024-01-06T04:37:45;100667.78;;;7.53;85.01
24752;BME280;27246;52.376;4.628;2024-01-06T04:42:47;100666.44;;;7.23;85.15
24752;BME280;27246;52.376;4.628;2024-01-06T04:47:51;100678.22;;;7.50;86.89
24752;BME280;27246;52.376;4.628;2024-01-06T04:52:54;100682.94;;;7.39;84.25
24752;BME280;27246;52.376;4.628;2024-01-06T04:57:56;100689.19;;;7.92;84.43
24752;BME280;27246;52.376;4.628;2024-01-06T05:02:57;100686.69;;;7.38;84.40
24752;BME280;27246;52.376;4.628;2024-01-06T05:07:59;100690.44;;;7.64;83.78
24752;BME280;27246;52.376;4.628;2024-01-06T05:13:01;100697.19;;;7.51;84.07
24752;BME280;27246;52.376;4.628;2024-01-06T05:18:03;100696.34;;;7.25;83.80
24752;BME280;27246;52.376;4.628;2024-01-06T05:23:06;100706.53;;;7.14;83.85
24752;BME280;27246;52.376;4.628;2024-01-06T05:28:07;100717.78;;;7.11;85.55
24752;BME280;27246;52.376;4.628;2024-01-06T05:33:11;100723.88;;;7.23;83.14
24752;BME280;27246;52.376;4.628;2024-01-06T05:38:15;100732.25;;;7.04;86.73
24752;BME280;27246;52.376;4.628;2024-01-06T05:43:18;100729.66;;;7.02;87.10
24752;BME280;27246;52.376;4.628;2024-01-06T05:48:20;100745.22;;;7.01;86.02
24752;BME280;27246;52.376;4.628;2024-01-06T05:53:22;100751.28;;;7.31;84.95
24752;BME280;27246;52.376;4.628;2024-01-06T05:58:24;100756.78;;;7.13;86.31
24752;BME280;27246;52.376;4.628;2024-01-06T06:03:25;100779.34;;;7.15;86.50
24752;BME280;27246;52.376;4.628;2024-01-06T06:08:27;100783.72;;;7.08;87.09
24752;BME280;27246;52.376;4.628;2024-01-06T06:13:29;100791.16;;;7.16;86.11
24752;BME280;27246;52.376;4.628;2024-01-06T06:18:31;100797.03;;;7.03;86.05
24752;BME280;27246;52.376;4.628;2024-01-06T06:23:37;100796.13;;;7.20;86.55
24752;BME280;27246;52.376;4.628;2024-01-06T06:28:39;100804.06;;;7.68;84.65
24752;BME280;27246;52.376;4.628;2024-01-06T06:33:41;100809.66;;;7.40;85.47
24752;BME280;27246;52.376;4.628;2024-01-06T06:38:44;100816.81;;;7.41;84.09
24752;BME280;27246;52.376;4.628;2024-01-06T06:43:45;100829.91;;;7.29;84.64
24752;BME280;27246;52.376;4.628;2024-01-06T06:48:47;100838.03;;;7.21;85.17
24752;BME280;27246;52.376;4.628;2024-01-06T06:53:49;100841.22;;;7.16;84.95
24752;BME280;27246;52.376;4.628;2024-01-06T06:58:51;100848.72;;;6.96;86.91
24752;BME280;27246;52.376;4.628;2024-01-06T07:03:54;100860.84;;;7.12;86.27
24752;BME280;27246;52.376;4.628;2024-01-06T07:08:56;100866.31;;;7.66;85.94
24752;BME280;27246;52.376;4.628;2024-01-06T07:13:58;100873.22;;;7.34;84.90
24752;BME280;27246;52.376;4.628;2024-01-06T07:19:00;100875.72;;;7.09;86.12
24752;BME280;27246;52.376;4.628;2024-01-06T07:24:02;100886.72;;;7.17;85.63
24752;BME280;27246;52.376;4.628;2024-01-06T07:29:03;100896.09;;;7.69;85.61
24752;BME280;27246;52.376;4.628;2024-01-06T07:34:06;100906.03;;;7.52;84.60
24752;BME280;27246;52.376;4.628;2024-01-06T07:39:08;100904.63;;;7.30;87.89
24752;BME280;27246;52.376;4.628;2024-01-06T07:44:13;100903.75;;;7.11;86.94
24752;BME280;27246;52.376;4.628;2024-01-06T07:49:19;100909.84;;;7.41;86.42
24752;BME280;27246;52.376;4.628;2024-01-06T07:54:21;100931.56;;;7.25;86.63
24752;BME280;27246;52.376;4.628;2024-01-06T07:59:23;100938.81;;;6.98;88.38
24752;BME280;27246;52.376;4.628;2024-01-06T08:04:25;100939.00;;;6.87;88.87
24752;BME280;27246;52.376;4.628;2024-01-06T08:09:27;100962.88;;;6.85;89.45
24752;BME280;27246;52.376;4.628;2024-01-06T08:14:29;100971.31;;;6.73;90.57
24752;BME280;27246;52.376;4.628;2024-01-06T08:19:31;100981.13;;;6.94;89.85
24752;BME280;27246;52.376;4.628;2024-01-06T08:24:34;100981.22;;;6.74;88.70
24752;BME280;27246;52.376;4.628;2024-01-06T08:29:37;100978.25;;;7.23;88.50
24752;BME280;27246;52.376;4.628;2024-01-06T08:34:39;101000.22;;;7.04;87.35
24752;BME280;27246;52.376;4.628;2024-01-06T08:39:44;101005.50;;;6.87;87.99
24752;BME280;27246;52.376;4.628;2024-01-06T08:44:46;101014.50;;;6.97;88.57
24752;BME280;27246;52.376;4.628;2024-01-06T08:49:48;101018.13;;;6.88;87.34
24752;BME280;27246;52.376;4.628;2024-01-06T08:54:50;101018.69;;;6.92;87.69
24752;BME280;27246;52.376;4.628;2024-01-06T08:59:52;101028.84;;;6.72;88.51
24752;BME280;27246;52.376;4.628;2024-01-06T09:04:54;101042.94;;;6.77;88.67
24752;BME280;27246;52.376;4.628;2024-01-06T09:09:56;101047.34;;;6.88;87.73
24752;BME280;27246;52.376;4.628;2024-01-06T09:14:58;101057.56;;;7.51;88.16
24752;BME280;27246;52.376;4.628;2024-01-06T09:20:00;101068.81;;;7.20;86.47
24752;BME280;27246;52.376;4.628;2024-01-06T09:25:03;101068.88;;;7.00;87.15
24752;BME280;27246;52.376;4.628;2024-01-06T09:30:06;101077.19;;;6.71;87.59
24752;BME280;27246;52.376;4.628;2024-01-06T09:35:08;101079.41;;;7.05;87.22
24752;BME280;27246;52.376;4.628;2024-01-06T09:40:13;101089.13;;;7.17;87.19
24752;BME280;27246;52.376;4.628;2024-01-06T09:45:17;101090.84;;;7.18;86.07
24752;BME280;27246;52.376;4.628;2024-01-06T09:50:28;101108.81;;;7.21;85.21
24752;BME280;27246;52.376;4.628;2024-01-06T09:55:30;101108.22;;;6.80;85.38
24752;BME280;27246;52.376;4.628;2024-01-06T10:00:36;101121.13;;;7.07;85.83
24752;BME280;27246;52.376;4.628;2024-01-06T10:05:40;101121.75;;;7.29;84.38
24752;BME280;27246;52.376;4.628;2024-01-06T10:10:44;101132.53;;;6.93;85.56
24752;BME280;27246;52.376;4.628;2024-01-06T10:15:55;101132.44;;;7.59;86.00
24752;BME280;27246;52.376;4.628;2024-01-06T10:21:05;101141.25;;;7.16;84.62
24752;BME280;27246;52.376;4.628;2024-01-06T10:26:12;101144.44;;;7.11;86.11
24752;BME280;27246;52.376;4.628;2024-01-06T10:31:14;101141.50;;;7.22;85.73
24752;BME280;27246;52.376;4.628;2024-01-06T10:36:16;101153.31;;;7.23;85.70
24752;BME280;27246;52.376;4.628;2024-01-06T10:41:22;101152.59;;;7.21;83.88
24752;BME280;27246;52.376;4.628;2024-01-06T10:46:25;101158.78;;;7.88;84.41
24752;BME280;27246;52.376;4.628;2024-01-06T10:51:31;101157.75;;;7.89;83.95
24752;BME280;27246;52.376;4.628;2024-01-06T10:56:37;101172.50;;;7.51;81.76
24752;BME280;27246;52.376;4.628;2024-01-06T11:01:39;101175.00;;;7.34;81.50
24752;BME280;27246;52.376;4.628;2024-01-06T11:06:45;101171.03;;;7.56;80.17
24752;BME280;27246;52.376;4.628;2024-01-06T11:11:48;101177.19;;;7.31;78.46
24752;BME280;27246;52.376;4.628;2024-01-06T11:16:53;101179.41;;;7.17;80.31
24752;BME280;27246;52.376;4.628;2024-01-06T11:22:18;101186.31;;;7.87;80.83
24752;BME280;27246;52.376;4.628;2024-01-06T11:27:23;101184.50;;;8.23;81.21
24752;BME280;27246;52.376;4.628;2024-01-06T11:32:30;101186.56;;;7.66;78.56
24752;BME280;27246;52.376;4.628;2024-01-06T11:42:45;101190.81;;;7.03;80.06
24752;BME280;27246;52.376;4.628;2024-01-06T11:47:57;101191.66;;;7.13;80.20
24752;BME280;27246;52.376;4.628;2024-01-06T11:53:05;101186.47;;;7.10;80.17
24752;BME280;27246;52.376;4.628;2024-01-06T11:58:16;101203.63;;;6.93;78.69
24752;BME280;27246;52.376;4.628;2024-01-06T12:03:18;101194.25;;;7.05;81.53
24752;BME280;27246;52.376;4.628;2024-01-06T12:08:20;101205.47;;;7.12;81.19
24752;BME280;27246;52.376;4.628;2024-01-06T12:13:22;101211.78;;;7.12;80.47
24752;BME280;27246;52.376;4.628;2024-01-06T12:18:24;101209.00;;;7.32;81.84
24752;BME280;27246;52.376;4.628;2024-01-06T12:23:27;101209.63;;;7.06;81.51
24752;BME280;27246;52.376;4.628;2024-01-06T12:28:29;101211.84;;;6.93;82.70
24752;BME280;27246;52.376;4.628;2024-01-06T12:33:31;101214.69;;;7.01;82.87
24752;BME280;27246;52.376;4.628;2024-01-06T12:38:37;101211.66;;;7.04;83.00
24752;BME280;27246;52.376;4.628;2024-01-06T12:43:39;101213.81;;;7.00;84.48
24752;BME280;27246;52.376;4.628;2024-01-06T12:48:41;101217.84;;;6.96;84.87
24752;BME280;27246;52.376;4.628;2024-01-06T12:53:43;101211.25;;;6.99;83.99
24752;BME280;27246;52.376;4.628;2024-01-06T12:58:46;101224.75;;;7.00;84.50
24752;BME280;27246;52.376;4.628;2024-01-06T13:03:48;101229.94;;;7.13;82.17
24752;BME280;27246;52.376;4.628;2024-01-06T13:08:50;101230.19;;;7.30;82.56
24752;BME280;27246;52.376;4.628;2024-01-06T13:13:51;101237.09;;;7.71;80.04
24752;BME280;27246;52.376;4.628;2024-01-06T13:18:53;101236.91;;;7.45;79.66
24752;BME280;27246;52.376;4.628;2024-01-06T13:23:56;101246.53;;;7.49;79.97
24752;BME280;27246;52.376;4.628;2024-01-06T13:29:03;101240.41;;;7.75;79.69
24752;BME280;27246;52.376;4.628;2024-01-06T13:34:07;101243.97;;;7.48;77.47
24752;BME280;27246;52.376;4.628;2024-01-06T13:39:09;101243.09;;;7.47;76.50
24752;BME280;27246;52.376;4.628;2024-01-06T13:44:19;101242.63;;;7.61;77.30
24752;BME280;27246;52.376;4.628;2024-01-06T13:49:22;101250.44;;;7.94;76.97
24752;BME280;27246;52.376;4.628;2024-01-06T13:54:25;101251.13;;;7.58;75.85
24752;BME280;27246;52.376;4.628;2024-01-06T13:59:27;101269.09;;;8.08;77.50
24752;BME280;27246;52.376;4.628;2024-01-06T14:04:29;101270.00;;;7.61;75.25
24752;BME280;27246;52.376;4.628;2024-01-06T14:09:31;101277.63;;;7.68;76.82
24752;BME280;27246;52.376;4.628;2024-01-06T14:14:32;101285.50;;;7.24;78.69
24752;BME280;27246;52.376;4.628;2024-01-06T14:19:34;101289.22;;;7.13;79.69
24752;BME280;27246;52.376;4.628;2024-01-06T14:24:36;101297.56;;;7.21;79.69
24752;BME280;27246;52.376;4.628;2024-01-06T14:29:40;101298.84;;;7.46;81.05
24752;BME280;27246;52.376;4.628;2024-01-06T14:34:42;101306.34;;;7.44;79.63
24752;BME280;27246;52.376;4.628;2024-01-06T14:39:43;101316.53;;;7.61;78.94
24752;BME280;27246;52.376;4.628;2024-01-06T14:44:45;101318.00;;;7.46;76.42
24752;BME280;27246;52.376;4.628;2024-01-06T14:49:47;101328.81;;;7.28;75.72
24752;BME280;27246;52.376;4.628;2024-01-06T14:54:49;101334.88;;;7.22;78.62
24752;BME280;27246;52.376;4.628;2024-01-06T14:59:51;101340.22;;;7.33;78.23
24752;BME280;27246;52.376;4.628;2024-01-06T15:04:54;101339.34;;;7.23;77.02
24752;BME280;27246;52.376;4.628;2024-01-06T15:09:55;101360.78;;;7.08;77.54
24752;BME280;27246;52.376;4.628;2024-01-06T15:15:00;101349.56;;;7.11;79.20
24752;BME280;27246;52.376;4.628;2024-01-06T15:20:03;101370.56;;;7.01;78.77
24752;BME280;27246;52.376;4.628;2024-01-06T15:25:05;101378.22;;;7.07;78.93
24752;BME280;27246;52.376;4.628;2024-01-06T15:30:09;101377.03;;;7.00;79.07
24752;BME280;27246;52.376;4.628;2024-01-06T15:35:11;101388.69;;;7.02;79.23
24752;BME280;27246;52.376;4.628;2024-01-06T15:40:13;101394.47;;;6.99;77.51
24752;BME280;27246;52.376;4.628;2024-01-06T15:45:15;101401.06;;;6.96;78.79
24752;BME280;27246;52.376;4.628;2024-01-06T15:50:17;101410.47;;;7.13;76.27
24752;BME280;27246;52.376;4.628;2024-01-06T15:55:19;101414.91;;;6.95;76.96
24752;BME280;27246;52.376;4.628;2024-01-06T16:00:21;101416.75;;;6.94;77.45
24752;BME280;27246;52.376;4.628;2024-01-06T16:05:23;101420.41;;;7.24;76.35
24752;BME280;27246;52.376;4.628;2024-01-06T16:10:28;101429.75;;;7.12;76.14
24752;BME280;27246;52.376;4.628;2024-01-06T16:15:30;101429.91;;;7.20;77.42
24752;BME280;27246;52.376;4.628;2024-01-06T16:20:34;101434.34;;;7.11;77.35
24752;BME280;27246;52.376;4.628;2024-01-06T16:25:43;101441.25;;;7.06;78.75
24752;BME280;27246;52.376;4.628;2024-01-06T16:30:44;101458.84;;;6.72;78.05
24752;BME280;27246;52.376;4.628;2024-01-06T16:35:47;101452.63;;;6.70;80.15
24752;BME280;27246;52.376;4.628;2024-01-06T16:40:56;101459.56;;;6.65;79.02
24752;BME280;27246;52.376;4.628;2024-01-06T16:46:01;101456.91;;;6.53;78.75
24752;BME280;27246;52.376;4.628;2024-01-06T16:51:10;101465.41;;;6.29;80.05
24752;BME280;27246;52.376;4.628;2024-01-06T16:56:21;101466.69;;;6.25;79.45
24752;BME280;27246;52.376;4.628;2024-01-06T17:01:23;101472.88;;;6.27;81.40
24752;BME280;27246;52.376;4.628;2024-01-06T17:06:25;101467.94;;;6.21;80.05
24752;BME280;27246;52.376;4.628;2024-01-06T17:11:28;101477.09;;;6.10;78.87
24752;BME280;27246;52.376;4.628;2024-01-06T17:16:30;101496.88;;;6.03;79.43
24752;BME280;27246;52.376;4.628;2024-01-06T17:21:32;101496.94;;;6.12;78.60
24752;BME280;27246;52.376;4.628;2024-01-06T17:26:33;101493.72;;;6.07;79.06
24752;BME280;27246;52.376;4.628;2024-01-06T17:31:35;101500.88;;;5.87;79.24
24752;BME280;27246;52.376;4.628;2024-01-06T17:36:40;101511.06;;;5.85;78.68
24752;BME280;27246;52.376;4.628;2024-01-06T17:41:42;101517.13;;;5.56;79.92
24752;BME280;27246;52.376;4.628;2024-01-06T17:46:57;101523.09;;;5.82;80.40
24752;BME280;27246;52.376;4.628;2024-01-06T17:52:00;101518.38;;;5.85;80.11
24752;BME280;27246;52.376;4.628;2024-01-06T17:57:01;101521.88;;;6.08;79.61
24752;BME280;27246;52.376;4.628;2024-01-06T18:02:05;101534.97;;;6.04;78.33
24752;BME280;27246;52.376;4.628;2024-01-06T18:07:07;101538.44;;;6.06;78.29
24752;BME280;27246;52.376;4.628;2024-01-06T18:12:09;101545.88;;;6.25;77.62
24752;BME280;27246;52.376;4.628;2024-01-06T18:17:11;101540.69;;;6.22;76.87
24752;BME280;27246;52.376;4.628;2024-01-06T18:22:13;101548.53;;;6.15;77.88
24752;BME280;27246;52.376;4.628;2024-01-06T18:27:15;101558.84;;;6.12;78.46
24752;BME280;27246;52.376;4.628;2024-01-06T18:32:17;101549.09;;;6.30;77.92
24752;BME280;27246;52.376;4.628;2024-01-06T18:37:19;101545.16;;;6.23;77.71
24752;BME280;27246;52.376;4.628;2024-01-06T18:42:21;101543.38;;;6.12;78.75
24752;BME280;27246;52.376;4.628;2024-01-06T18:47:26;101542.00;;;6.28;77.83
24752;BME280;27246;52.376;4.628;2024-01-06T18:52:29;101554.81;;;6.06;77.14
24752;BME280;27246;52.376;4.628;2024-01-06T18:57:33;101547.16;;;6.21;77.34
24752;BME280;27246;52.376;4.628;2024-01-06T19:02:35;101558.13;;;6.10;77.59
24752;BME280;27246;52.376;4.628;2024-01-06T19:07:37;101555.22;;;6.44;77.01
24752;BME280;27246;52.376;4.628;2024-01-06T19:12:38;101560.69;;;6.44;76.73
24752;BME280;27246;52.376;4.628;2024-01-06T19:17:40;101571.53;;;6.13;77.76
24752;BME280;27246;52.376;4.628;2024-01-06T19:22:47;101568.53;;;6.16;77.14
24752;BME280;27246;52.376;4.628;2024-01-06T19:28:09;101576.41;;;6.30;76.67
24752;BME280;27246;52.376;4.628;2024-01-06T19:33:11;101592.88;;;6.08;76.40
24752;BME280;27246;52.376;4.628;2024-01-06T19:38:13;101590.84;;;6.42;75.63
24752;BME280;27246;52.376;4.628;2024-01-06T19:43:21;101607.31;;;6.52;74.88
24752;BME280;27246;52.376;4.628;2024-01-06T19:48:23;101610.59;;;6.46;75.21
24752;BME280;27246;52.376;4.628;2024-01-06T19:53:25;101616.06;;;6.67;74.69
24752;BME280;27246;52.376;4.628;2024-01-06T19:58:27;101620.00;;;6.53;74.69
24752;BME280;27246;52.376;4.628;2024-01-06T20:03:29;101624.69;;;6.09;72.76
24752;BME280;27246;52.376;4.628;2024-01-06T20:08:31;101630.78;;;6.01;75.01
24752;BME280;27246;52.376;4.628;2024-01-06T20:13:34;101637.97;;;5.91;75.08
24752;BME280;27246;52.376;4.628;2024-01-06T20:18:36;101636.63;;;5.85;75.49
24752;BME280;27246;52.376;4.628;2024-01-06T20:23:41;101640.84;;;5.89;75.44
24752;BME280;27246;52.376;4.628;2024-01-06T20:28:45;101640.88;;;5.78;76.40
24752;BME280;27246;52.376;4.628;2024-01-06T20:33:48;101641.63;;;6.24;74.70
24752;BME280;27246;52.376;4.628;2024-01-06T20:38:51;101655.47;;;5.99;73.77
24752;BME280;27246;52.376;4.628;2024-01-06T20:43:53;101654.84;;;6.39;75.23
24752;BME280;27246;52.376;4.628;2024-01-06T20:48:55;101651.34;;;6.16;72.00
24752;BME280;27246;52.376;4.628;2024-01-06T20:53:57;101660.50;;;7.11;70.95
24752;BME280;27246;52.376;4.628;2024-01-06T20:58:59;101659.94;;;5.89;69.42
24752;BME280;27246;52.376;4.628;2024-01-06T21:04:01;101648.34;;;5.65;69.93
24752;BME280;27246;52.376;4.628;2024-01-06T21:09:03;101655.53;;;5.66;72.25
24752;BME280;27246;52.376;4.628;2024-01-06T21:14:05;101646.50;;;5.43;71.36
24752;BME280;27246;52.376;4.628;2024-01-06T21:19:07;101654.72;;;5.97;72.04
24752;BME280;27246;52.376;4.628;2024-01-06T21:24:10;101658.63;;;6.27;70.54
24752;BME280;27246;52.376;4.628;2024-01-06T21:29:13;101659.94;;;5.89;69.95
24752;BME280;27246;52.376;4.628;2024-01-06T21:34:14;101651.34;;;5.28;70.36
24752;BME280;27246;52.376;4.628;2024-01-06T21:39:20;101652.69;;;5.56;71.21
24752;BME280;27246;52.376;4.628;2024-01-06T21:44:25;101665.69;;;6.83;75.20
24752;BME280;27246;52.376;4.628;2024-01-06T21:49:26;101657.25;;;7.27;76.98
24752;BME280;27246;52.376;4.628;2024-01-06T21:54:33;101661.31;;;6.38;73.41
24752;BME280;27246;52.376;4.628;2024-01-06T21:59:43;101668.19;;;5.67;70.81
24752;BME280;27246;52.376;4.628;2024-01-06T22:04:47;101663.69;;;5.77;70.05
24752;BME280;27246;52.376;4.628;2024-01-06T22:09:49;101680.22;;;5.30;69.96
24752;BME280;27246;52.376;4.628;2024-01-06T22:14:58;101694.16;;;6.16;71.02
24752;BME280;27246;52.376;4.628;2024-01-06T22:20:01;101704.22;;;6.15;70.36
24752;BME280;27246;52.376;4.628;2024-01-06T22:25:06;101711.22;;;4.71;69.23
24752;BME280;27246;52.376;4.628;2024-01-06T22:30:17;101715.31;;;4.41;69.50
24752;BME280;27246;52.376;4.628;2024-01-06T22:35:20;101715.44;;;3.79;73.42
24752;BME280;27246;52.376;4.628;2024-01-06T22:40:22;101717.75;;;5.04;73.82
24752;BME280;27246;52.376;4.628;2024-01-06T22:45:24;101722.25;;;5.28;70.78
24752;BME280;27246;52.376;4.628;2024-01-06T22:50:36;101733.72;;;4.97;70.21
24752;BME280;27246;52.376;4.628;2024-01-06T22:55:50;101743.94;;;4.47;70.99
24752;BME280;27246;52.376;4.628;2024-01-06T23:00:54;101743.38;;;4.55;72.44
24752;BME280;27246;52.376;4.628;2024-01-06T23:06:01;101754.47;;;5.11;72.94
24752;BME280;27246;52.376;4.628;2024-01-06T23:11:10;101750.47;;;5.04;70.99
24752;BME280;27246;52.376;4.628;2024-01-06T23:16:18;101752.97;;;5.07;71.03
24752;BME280;27246;52.376;4.628;2024-01-06T23:21:33;101759.06;;;4.87;71.11
24752;BME280;27246;52.376;4.628;2024-01-06T23:26:36;101767.16;;;5.46;70.11
24752;BME280;27246;52.376;4.628;2024-01-06T23:31:38;101768.22;;;5.21;71.41
24752;BME280;27246;52.376;4.628;2024-01-06T23:36:40;101779.94;;;5.46;70.08
24752;BME280;27246;52.376;4.628;2024-01-06T23:41:41;101780.91;;;5.45;71.37
24752;BME280;27246;52.376;4.628;2024-01-06T23:46:43;101780.72;;;5.12;70.24
24752;BME280;27246;52.376;4.628;2024-01-06T23:51:45;101790.53;;;4.79;70.73
24752;BME280;27246;52.376;4.628;2024-01-06T23:56:47;101789.25;;;5.08;72.06
